sensor_id;sensor_type;location;lat;lon;timestamp;temperature;humidity
29479;DHT22;16437;41.836;23.480;2022-10-26T00:01:51;19.10;43.50
29479;DHT22;16437;41.836;23.480;2022-10-26T00:07:17;19.10;43.40
29479;DHT22;16437;41.836;23.480;2022-10-26T00:12:46;19.10;43.40
29479;DHT22;16437;41.836;23.480;2022-10-26T00:18:11;19.10;43.40
29479;DHT22;16437;41.836;23.480;2022-10-26T00:23:38;19.10;43.40
29479;DHT22;16437;41.836;23.480;2022-10-26T00:29:05;19.10;43.40
29479;DHT22;16437;41.836;23.480;2022-10-26T00:34:32;19.10;43.40
29479;DHT22;16437;41.836;23.480;2022-10-26T00:39:58;19.10;43.40
29479;DHT22;16437;41.836;23.480;2022-10-26T00:45:26;19.10;43.40
29479;DHT22;16437;41.836;23.480;2022-10-26T00:50:53;19.00;43.50
29479;DHT22;16437;41.836;23.480;2022-10-26T00:56:21;19.10;43.50
29479;DHT22;16437;41.836;23.480;2022-10-26T01:01:48;19.00;43.40
29479;DHT22;16437;41.836;23.480;2022-10-26T01:07:16;19.00;43.40
29479;DHT22;16437;41.836;23.480;2022-10-26T01:12:42;19.00;43.40
29479;DHT22;16437;41.836;23.480;2022-10-26T01:18:23;19.00;43.40
29479;DHT22;16437;41.836;23.480;2022-10-26T01:24:05;19.00;43.40
29479;DHT22;16437;41.836;23.480;2022-10-26T01:29:42;19.00;43.40
29479;DHT22;16437;41.836;23.480;2022-10-26T01:35:18;19.00;43.50
29479;DHT22;16437;41.836;23.480;2022-10-26T01:40:48;18.90;43.50
29479;DHT22;16437;41.836;23.480;2022-10-26T01:46:12;18.90;43.50
29479;DHT22;16437;41.836;23.480;2022-10-26T01:51:43;18.90;43.50
29479;DHT22;16437;41.836;23.480;2022-10-26T01:57:13;18.90;43.60
29479;DHT22;16437;41.836;23.480;2022-10-26T02:08:29;18.90;43.60
29479;DHT22;16437;41.836;23.480;2022-10-26T02:19:53;18.80;43.70
29479;DHT22;16437;41.836;23.480;2022-10-26T02:25:19;18.90;43.70
29479;DHT22;16437;41.836;23.480;2022-10-26T02:30:45;18.80;43.60
29479;DHT22;16437;41.836;23.480;2022-10-26T02:36:15;18.90;43.50
29479;DHT22;16437;41.836;23.480;2022-10-26T02:41:43;18.80;43.50
29479;DHT22;16437;41.836;23.480;2022-10-26T02:47:10;18.80;43.40
29479;DHT22;16437;41.836;23.480;2022-10-26T02:53:03;18.80;43.40
29479;DHT22;16437;41.836;23.480;2022-10-26T02:58:30;18.80;43.40
29479;DHT22;16437;41.836;23.480;2022-10-26T03:03:57;18.80;43.50
29479;DHT22;16437;41.836;23.480;2022-10-26T03:09:24;18.80;43.60
29479;DHT22;16437;41.836;23.480;2022-10-26T03:14:50;18.70;43.60
29479;DHT22;16437;41.836;23.480;2022-10-26T03:20:16;18.70;43.80
29479;DHT22;16437;41.836;23.480;2022-10-26T03:25:43;18.80;43.80
29479;DHT22;16437;41.836;23.480;2022-10-26T03:31:09;18.70;43.70
29479;DHT22;16437;41.836;23.480;2022-10-26T03:36:36;18.70;43.70
29479;DHT22;16437;41.836;23.480;2022-10-26T03:42:03;18.70;43.70
29479;DHT22;16437;41.836;23.480;2022-10-26T03:47:30;18.70;43.70
29479;DHT22;16437;41.836;23.480;2022-10-26T03:52:56;18.70;43.70
29479;DHT22;16437;41.836;23.480;2022-10-26T03:58:22;18.60;43.70
29479;DHT22;16437;41.836;23.480;2022-10-26T04:03:49;18.70;43.70
29479;DHT22;16437;41.836;23.480;2022-10-26T04:09:15;18.60;43.80
29479;DHT22;16437;41.836;23.480;2022-10-26T04:14:42;18.60;43.80
29479;DHT22;16437;41.836;23.480;2022-10-26T04:20:09;18.70;43.80
29479;DHT22;16437;41.836;23.480;2022-10-26T04:25:35;18.60;43.80
29479;DHT22;16437;41.836;23.480;2022-10-26T04:31:01;18.60;43.80
29479;DHT22;16437;41.836;23.480;2022-10-26T04:36:29;18.60;43.80
29479;DHT22;16437;41.836;23.480;2022-10-26T04:41:55;18.60;43.80
29479;DHT22;16437;41.836;23.480;2022-10-26T04:47:22;18.60;43.90
29479;DHT22;16437;41.836;23.480;2022-10-26T04:52:50;18.60;43.90
29479;DHT22;16437;41.836;23.480;2022-10-26T04:58:16;18.60;43.80
29479;DHT22;16437;41.836;23.480;2022-10-26T05:03:42;18.60;43.80
29479;DHT22;16437;41.836;23.480;2022-10-26T05:09:09;18.60;43.80
29479;DHT22;16437;41.836;23.480;2022-10-26T05:14:35;18.50;43.80
29479;DHT22;16437;41.836;23.480;2022-10-26T05:20:01;18.50;43.70
29479;DHT22;16437;41.836;23.480;2022-10-26T05:25:32;18.50;43.70
29479;DHT22;16437;41.836;23.480;2022-10-26T05:30:58;18.50;43.70
29479;DHT22;16437;41.836;23.480;2022-10-26T05:36:24;18.50;43.70
29479;DHT22;16437;41.836;23.480;2022-10-26T05:41:51;18.40;43.70
29479;DHT22;16437;41.836;23.480;2022-10-26T05:47:18;18.50;43.70
29479;DHT22;16437;41.836;23.480;2022-10-26T05:52:45;18.40;43.70
29479;DHT22;16437;41.836;23.480;2022-10-26T05:58:13;18.50;43.60
29479;DHT22;16437;41.836;23.480;2022-10-26T06:09:27;18.50;43.60
29479;DHT22;16437;41.836;23.480;2022-10-26T06:14:54;18.50;43.60
29479;DHT22;16437;41.836;23.480;2022-10-26T06:20:29;18.50;43.70
29479;DHT22;16437;41.836;23.480;2022-10-26T06:31:29;18.40;43.80
29479;DHT22;16437;41.836;23.480;2022-10-26T06:36:57;18.50;43.90
29479;DHT22;16437;41.836;23.480;2022-10-26T06:42:24;18.50;43.80
29479;DHT22;16437;41.836;23.480;2022-10-26T06:53:42;18.50;43.70
29479;DHT22;16437;41.836;23.480;2022-10-26T06:59:12;18.50;43.70
29479;DHT22;16437;41.836;23.480;2022-10-26T07:04:36;18.50;43.60
29479;DHT22;16437;41.836;23.480;2022-10-26T07:10:03;18.50;43.60
29479;DHT22;16437;41.836;23.480;2022-10-26T07:15:37;18.50;43.70
29479;DHT22;16437;41.836;23.480;2022-10-26T07:21:00;18.50;43.70
29479;DHT22;16437;41.836;23.480;2022-10-26T07:26:26;18.50;43.60
29479;DHT22;16437;41.836;23.480;2022-10-26T07:31:53;18.50;43.60
29479;DHT22;16437;41.836;23.480;2022-10-26T07:37:19;18.50;43.60
29479;DHT22;16437;41.836;23.480;2022-10-26T07:42:46;18.50;43.60
29479;DHT22;16437;41.836;23.480;2022-10-26T07:48:12;18.50;43.70
29479;DHT22;16437;41.836;23.480;2022-10-26T07:53:39;18.50;43.70
29479;DHT22;16437;41.836;23.480;2022-10-26T07:59:05;18.60;43.80
29479;DHT22;16437;41.836;23.480;2022-10-26T08:04:32;18.60;43.80
29479;DHT22;16437;41.836;23.480;2022-10-26T08:09:58;18.60;43.90
29479;DHT22;16437;41.836;23.480;2022-10-26T08:15:25;18.50;43.90
29479;DHT22;16437;41.836;23.480;2022-10-26T08:20:51;18.60;43.90
29479;DHT22;16437;41.836;23.480;2022-10-26T08:26:17;18.50;44.00
29479;DHT22;16437;41.836;23.480;2022-10-26T08:31:47;18.60;44.00
29479;DHT22;16437;41.836;23.480;2022-10-26T08:37:13;18.50;44.00
29479;DHT22;16437;41.836;23.480;2022-10-26T08:42:42;18.60;44.00
29479;DHT22;16437;41.836;23.480;2022-10-26T08:48:12;18.60;44.00
29479;DHT22;16437;41.836;23.480;2022-10-26T08:53:59;18.60;44.00
29479;DHT22;16437;41.836;23.480;2022-10-26T08:59:43;18.50;44.10
29479;DHT22;16437;41.836;23.480;2022-10-26T09:05:15;18.50;44.10
29479;DHT22;16437;41.836;23.480;2022-10-26T09:16:52;18.60;44.10
29479;DHT22;16437;41.836;23.480;2022-10-26T09:22:21;18.50;44.10
29479;DHT22;16437;41.836;23.480;2022-10-26T09:27:54;18.50;44.20
29479;DHT22;16437;41.836;23.480;2022-10-26T09:39:45;18.60;44.40
29479;DHT22;16437;41.836;23.480;2022-10-26T09:44:42;18.60;44.40
29479;DHT22;16437;41.836;23.480;2022-10-26T09:50:17;18.70;44.50
29479;DHT22;16437;41.836;23.480;2022-10-26T09:55:46;18.70;44.60
29479;DHT22;16437;41.836;23.480;2022-10-26T10:12:32;18.80;44.90
29479;DHT22;16437;41.836;23.480;2022-10-26T10:17:59;19.10;45.00
29479;DHT22;16437;41.836;23.480;2022-10-26T10:23:30;19.20;45.00
29479;DHT22;16437;41.836;23.480;2022-10-26T10:28:59;19.30;45.10
29479;DHT22;16437;41.836;23.480;2022-10-26T10:34:32;19.30;45.00
29479;DHT22;16437;41.836;23.480;2022-10-26T10:40:03;19.40;44.90
29479;DHT22;16437;41.836;23.480;2022-10-26T10:45:30;19.50;44.90
29479;DHT22;16437;41.836;23.480;2022-10-26T10:50:59;19.50;44.80
29479;DHT22;16437;41.836;23.480;2022-10-26T10:56:30;19.60;44.80
29479;DHT22;16437;41.836;23.480;2022-10-26T11:07:53;19.80;44.60
29479;DHT22;16437;41.836;23.480;2022-10-26T11:13:22;19.90;44.50
29479;DHT22;16437;41.836;23.480;2022-10-26T11:24:49;20.00;44.30
29479;DHT22;16437;41.836;23.480;2022-10-26T11:30:21;20.10;44.20
29479;DHT22;16437;41.836;23.480;2022-10-26T11:36:02;20.20;44.00
29479;DHT22;16437;41.836;23.480;2022-10-26T11:41:40;20.20;43.90
29479;DHT22;16437;41.836;23.480;2022-10-26T11:47:11;20.30;43.90
29479;DHT22;16437;41.836;23.480;2022-10-26T11:52:44;20.40;43.80
29479;DHT22;16437;41.836;23.480;2022-10-26T11:58:12;20.50;43.70
29479;DHT22;16437;41.836;23.480;2022-10-26T12:03:49;20.50;43.50
29479;DHT22;16437;41.836;23.480;2022-10-26T12:09:20;20.60;43.60
29479;DHT22;16437;41.836;23.480;2022-10-26T12:20:57;20.80;43.40
29479;DHT22;16437;41.836;23.480;2022-10-26T12:31:55;21.00;43.20
29479;DHT22;16437;41.836;23.480;2022-10-26T12:37:33;21.10;43.20
29479;DHT22;16437;41.836;23.480;2022-10-26T12:48:49;21.20;43.00
29479;DHT22;16437;41.836;23.480;2022-10-26T12:54:30;21.30;42.90
29479;DHT22;16437;41.836;23.480;2022-10-26T12:59:56;21.30;42.80
29479;DHT22;16437;41.836;23.480;2022-10-26T13:11:18;21.50;42.70
29479;DHT22;16437;41.836;23.480;2022-10-26T13:16:46;21.50;42.70
29479;DHT22;16437;41.836;23.480;2022-10-26T13:22:14;21.60;42.60
29479;DHT22;16437;41.836;23.480;2022-10-26T13:27:43;21.60;42.50
29479;DHT22;16437;41.836;23.480;2022-10-26T13:33:20;21.60;42.50
29479;DHT22;16437;41.836;23.480;2022-10-26T13:38:44;21.70;42.40
29479;DHT22;16437;41.836;23.480;2022-10-26T13:45:00;21.70;42.40
29479;DHT22;16437;41.836;23.480;2022-10-26T13:49:44;21.70;42.40
29479;DHT22;16437;41.836;23.480;2022-10-26T13:55:31;21.70;42.30
29479;DHT22;16437;41.836;23.480;2022-10-26T14:06:39;21.60;42.40
29479;DHT22;16437;41.836;23.480;2022-10-26T14:12:08;21.60;42.40
29479;DHT22;16437;41.836;23.480;2022-10-26T14:17:35;21.50;42.40
29479;DHT22;16437;41.836;23.480;2022-10-26T14:23:01;21.40;42.40
29479;DHT22;16437;41.836;23.480;2022-10-26T14:28:30;21.30;42.50
29479;DHT22;16437;41.836;23.480;2022-10-26T14:33:59;21.10;42.60
29479;DHT22;16437;41.836;23.480;2022-10-26T14:39:32;21.10;42.70
29479;DHT22;16437;41.836;23.480;2022-10-26T14:44:58;20.90;42.80
29479;DHT22;16437;41.836;23.480;2022-10-26T14:50:26;20.90;43.00
29479;DHT22;16437;41.836;23.480;2022-10-26T14:55:54;20.80;43.20
29479;DHT22;16437;41.836;23.480;2022-10-26T15:01:23;20.80;43.30
29479;DHT22;16437;41.836;23.480;2022-10-26T15:06:50;20.70;43.40
29479;DHT22;16437;41.836;23.480;2022-10-26T15:12:34;20.70;43.50
29479;DHT22;16437;41.836;23.480;2022-10-26T15:18:01;20.60;43.70
29479;DHT22;16437;41.836;23.480;2022-10-26T15:23:29;20.50;43.80
29479;DHT22;16437;41.836;23.480;2022-10-26T15:28:56;20.50;43.80
29479;DHT22;16437;41.836;23.480;2022-10-26T15:34:23;20.50;43.90
29479;DHT22;16437;41.836;23.480;2022-10-26T15:39:50;20.40;43.90
29479;DHT22;16437;41.836;23.480;2022-10-26T15:50:48;20.40;44.00
29479;DHT22;16437;41.836;23.480;2022-10-26T15:56:16;20.40;44.10
29479;DHT22;16437;41.836;23.480;2022-10-26T16:01:43;20.30;44.10
29479;DHT22;16437;41.836;23.480;2022-10-26T16:07:12;20.30;44.10
29479;DHT22;16437;41.836;23.480;2022-10-26T16:12:39;20.30;44.20
29479;DHT22;16437;41.836;23.480;2022-10-26T16:18:05;20.30;44.30
29479;DHT22;16437;41.836;23.480;2022-10-26T16:23:32;20.30;44.30
29479;DHT22;16437;41.836;23.480;2022-10-26T16:28:58;20.30;44.30
29479;DHT22;16437;41.836;23.480;2022-10-26T16:34:25;20.30;44.30
29479;DHT22;16437;41.836;23.480;2022-10-26T16:39:51;20.20;44.30
29479;DHT22;16437;41.836;23.480;2022-10-26T16:45:18;20.20;44.30
29479;DHT22;16437;41.836;23.480;2022-10-26T16:50:44;20.10;44.20
29479;DHT22;16437;41.836;23.480;2022-10-26T16:56:13;20.20;44.20
29479;DHT22;16437;41.836;23.480;2022-10-26T17:01:40;20.10;44.30
29479;DHT22;16437;41.836;23.480;2022-10-26T17:07:06;20.10;44.30
29479;DHT22;16437;41.836;23.480;2022-10-26T17:12:33;20.10;44.30
29479;DHT22;16437;41.836;23.480;2022-10-26T17:17:59;20.10;44.40
29479;DHT22;16437;41.836;23.480;2022-10-26T17:23:25;20.00;44.40
29479;DHT22;16437;41.836;23.480;2022-10-26T17:28:52;20.00;44.40
29479;DHT22;16437;41.836;23.480;2022-10-26T17:34:21;20.00;44.40
29479;DHT22;16437;41.836;23.480;2022-10-26T17:39:47;20.00;44.40
29479;DHT22;16437;41.836;23.480;2022-10-26T17:45:14;20.00;44.40
29479;DHT22;16437;41.836;23.480;2022-10-26T17:50:40;19.90;44.40
29479;DHT22;16437;41.836;23.480;2022-10-26T17:56:19;19.90;44.40
29479;DHT22;16437;41.836;23.480;2022-10-26T18:01:42;19.90;44.40
29479;DHT22;16437;41.836;23.480;2022-10-26T18:07:08;19.90;44.30
29479;DHT22;16437;41.836;23.480;2022-10-26T18:12:35;19.90;44.30
29479;DHT22;16437;41.836;23.480;2022-10-26T18:18:01;19.90;44.30
29479;DHT22;16437;41.836;23.480;2022-10-26T18:23:28;19.90;44.20
29479;DHT22;16437;41.836;23.480;2022-10-26T18:28:56;19.80;44.00
29479;DHT22;16437;41.836;23.480;2022-10-26T18:34:23;19.80;44.00
29479;DHT22;16437;41.836;23.480;2022-10-26T18:39:49;19.80;43.90
29479;DHT22;16437;41.836;23.480;2022-10-26T18:45:15;19.80;43.80
29479;DHT22;16437;41.836;23.480;2022-10-26T18:50:42;19.80;43.80
29479;DHT22;16437;41.836;23.480;2022-10-26T18:56:11;19.80;43.70
29479;DHT22;16437;41.836;23.480;2022-10-26T19:01:37;19.70;43.70
29479;DHT22;16437;41.836;23.480;2022-10-26T19:07:05;19.80;43.70
29479;DHT22;16437;41.836;23.480;2022-10-26T19:12:32;19.70;43.60
29479;DHT22;16437;41.836;23.480;2022-10-26T19:17:59;19.70;43.60
29479;DHT22;16437;41.836;23.480;2022-10-26T19:23:36;19.70;43.50
29479;DHT22;16437;41.836;23.480;2022-10-26T19:29:02;19.70;43.50
29479;DHT22;16437;41.836;23.480;2022-10-26T19:34:29;19.70;43.50
29479;DHT22;16437;41.836;23.480;2022-10-26T19:39:56;19.70;43.60
29479;DHT22;16437;41.836;23.480;2022-10-26T19:45:22;19.60;43.70
29479;DHT22;16437;41.836;23.480;2022-10-26T19:50:50;19.60;43.70
29479;DHT22;16437;41.836;23.480;2022-10-26T19:56:18;19.60;43.80
29479;DHT22;16437;41.836;23.480;2022-10-26T20:01:44;19.60;43.80
29479;DHT22;16437;41.836;23.480;2022-10-26T20:07:11;19.60;43.90
29479;DHT22;16437;41.836;23.480;2022-10-26T20:12:39;19.60;43.80
29479;DHT22;16437;41.836;23.480;2022-10-26T20:18:06;19.60;43.80
29479;DHT22;16437;41.836;23.480;2022-10-26T20:23:34;19.60;43.70
29479;DHT22;16437;41.836;23.480;2022-10-26T20:29:01;19.60;43.70
29479;DHT22;16437;41.836;23.480;2022-10-26T20:34:27;19.50;43.60
29479;DHT22;16437;41.836;23.480;2022-10-26T20:39:54;19.50;43.60
29479;DHT22;16437;41.836;23.480;2022-10-26T20:45:24;19.50;43.60
29479;DHT22;16437;41.836;23.480;2022-10-26T20:51:18;19.50;43.60
29479;DHT22;16437;41.836;23.480;2022-10-26T20:56:28;19.50;43.60
29479;DHT22;16437;41.836;23.480;2022-10-26T21:01:56;19.50;43.60
29479;DHT22;16437;41.836;23.480;2022-10-26T21:07:22;19.50;43.70
29479;DHT22;16437;41.836;23.480;2022-10-26T21:12:49;19.50;43.70
29479;DHT22;16437;41.836;23.480;2022-10-26T21:18:16;19.40;43.70
29479;DHT22;16437;41.836;23.480;2022-10-26T21:23:43;19.40;43.70
29479;DHT22;16437;41.836;23.480;2022-10-26T21:29:10;19.40;43.80
29479;DHT22;16437;41.836;23.480;2022-10-26T21:34:36;19.40;43.80
29479;DHT22;16437;41.836;23.480;2022-10-26T21:40:03;19.40;43.70
29479;DHT22;16437;41.836;23.480;2022-10-26T21:45:29;19.40;43.70
29479;DHT22;16437;41.836;23.480;2022-10-26T21:50:56;19.40;43.80
29479;DHT22;16437;41.836;23.480;2022-10-26T21:56:23;19.40;43.80
29479;DHT22;16437;41.836;23.480;2022-10-26T22:01:49;19.40;43.80
29479;DHT22;16437;41.836;23.480;2022-10-26T22:07:15;19.40;43.80
29479;DHT22;16437;41.836;23.480;2022-10-26T22:12:43;19.40;44.10
29479;DHT22;16437;41.836;23.480;2022-10-26T22:18:09;19.40;44.10
29479;DHT22;16437;41.836;23.480;2022-10-26T22:23:38;19.40;44.20
29479;DHT22;16437;41.836;23.480;2022-10-26T22:29:05;19.40;44.20
29479;DHT22;16437;41.836;23.480;2022-10-26T22:34:32;19.30;44.30
29479;DHT22;16437;41.836;23.480;2022-10-26T22:39:58;19.30;44.30
29479;DHT22;16437;41.836;23.480;2022-10-26T22:45:24;19.30;44.30
29479;DHT22;16437;41.836;23.480;2022-10-26T22:50:50;19.30;44.30
29479;DHT22;16437;41.836;23.480;2022-10-26T22:56:16;19.30;44.30
29479;DHT22;16437;41.836;23.480;2022-10-26T23:01:43;19.30;44.20
29479;DHT22;16437;41.836;23.480;2022-10-26T23:07:10;19.30;44.20
29479;DHT22;16437;41.836;23.480;2022-10-26T23:12:36;19.30;44.20
29479;DHT22;16437;41.836;23.480;2022-10-26T23:18:03;19.20;44.20
29479;DHT22;16437;41.836;23.480;2022-10-26T23:23:29;19.20;44.20
29479;DHT22;16437;41.836;23.480;2022-10-26T23:28:56;19.20;44.20
29479;DHT22;16437;41.836;23.480;2022-10-26T23:34:23;19.20;44.20
29479;DHT22;16437;41.836;23.480;2022-10-26T23:39:49;19.20;44.30
29479;DHT22;16437;41.836;23.480;2022-10-26T23:45:15;19.20;44.30
29479;DHT22;16437;41.836;23.480;2022-10-26T23:50:43;19.20;44.30
29479;DHT22;16437;41.836;23.480;2022-10-26T23:56:09;19.20;44.30
